sensor_id;sensor_type;location;lat;lon;timestamp;P1;durP1;ratioP1;P2;durP2;ratioP2
57057;SDS011;55017;52.848;6.748;2022-08-19T00:46:24;91.57;;;88.05;;
57057;SDS011;55017;52.848;6.748;2022-08-19T00:48:50;89.43;;;86.32;;
57057;SDS011;55017;52.848;6.748;2022-08-19T00:51:15;88.97;;;85.82;;
57057;SDS011;55017;52.848;6.748;2022-08-19T00:53:41;89.43;;;86.22;;
57057;SDS011;55017;52.848;6.748;2022-08-19T00:56:08;89.18;;;86.07;;
57057;SDS011;55017;52.848;6.748;2022-08-19T00:58:35;90.38;;;87.18;;
57057;SDS011;55017;52.848;6.748;2022-08-19T01:01:02;91.32;;;88.22;;
57057;SDS011;55017;52.848;6.748;2022-08-19T01:03:29;88.45;;;85.28;;
57057;SDS011;55017;52.848;6.748;2022-08-19T01:05:55;87.93;;;84.72;;
57057;SDS011;55017;52.848;6.748;2022-08-19T01:08:21;90.38;;;87.18;;
57057;SDS011;55017;52.848;6.748;2022-08-19T01:10:48;91.80;;;88.40;;
57057;SDS011;55017;52.848;6.748;2022-08-19T01:24:40;91.82;;;88.32;;
57057;SDS011;55017;52.848;6.748;2022-08-19T01:27:06;91.47;;;88.18;;
57057;SDS011;55017;52.848;6.748;2022-08-19T01:29:32;90.38;;;86.68;;
57057;SDS011;55017;52.848;6.748;2022-08-19T01:31:58;90.70;;;87.50;;
57057;SDS011;55017;52.848;6.748;2022-08-19T01:34:25;93.90;;;90.40;;
57057;SDS011;55017;52.848;6.748;2022-08-19T01:36:51;90.18;;;86.97;;
57057;SDS011;55017;52.848;6.748;2022-08-19T01:39:19;89.28;;;86.18;;
57057;SDS011;55017;52.848;6.748;2022-08-19T01:41:47;87.80;;;84.75;;
57057;SDS011;55017;52.848;6.748;2022-08-19T01:44:13;87.68;;;84.47;;
57057;SDS011;55017;52.848;6.748;2022-08-19T01:46:40;90.88;;;87.57;;
57057;SDS011;55017;52.848;6.748;2022-08-19T01:49:06;91.50;;;88.22;;
57057;SDS011;55017;52.848;6.748;2022-08-19T01:51:33;87.90;;;84.80;;
57057;SDS011;55017;52.848;6.748;2022-08-19T01:53:59;92.88;;;89.47;;
57057;SDS011;55017;52.848;6.748;2022-08-19T01:56:25;91.10;;;87.80;;
57057;SDS011;55017;52.848;6.748;2022-08-19T01:58:55;91.68;;;88.43;;
57057;SDS011;55017;52.848;6.748;2022-08-19T02:01:26;90.78;;;87.53;;
57057;SDS011;55017;52.848;6.748;2022-08-19T02:03:51;91.65;;;88.35;;
57057;SDS011;55017;52.848;6.748;2022-08-19T02:06:18;95.43;;;91.97;;
57057;SDS011;55017;52.848;6.748;2022-08-19T02:08:44;92.10;;;88.50;;
57057;SDS011;55017;52.848;6.748;2022-08-19T02:11:18;91.30;;;88.03;;
57057;SDS011;55017;52.848;6.748;2022-08-19T02:13:45;92.20;;;88.90;;
57057;SDS011;55017;52.848;6.748;2022-08-19T02:16:11;91.53;;;88.25;;
57057;SDS011;55017;52.848;6.748;2022-08-19T02:18:37;91.85;;;88.60;;
57057;SDS011;55017;52.848;6.748;2022-08-19T02:21:02;91.93;;;88.63;;
57057;SDS011;55017;52.848;6.748;2022-08-19T02:23:28;92.75;;;89.40;;
57057;SDS011;55017;52.848;6.748;2022-08-19T02:25:54;92.97;;;89.65;;
57057;SDS011;55017;52.848;6.748;2022-08-19T02:28:19;93.20;;;89.85;;
57057;SDS011;55017;52.848;6.748;2022-08-19T02:30:45;93.53;;;90.03;;
57057;SDS011;55017;52.848;6.748;2022-08-19T02:33:13;95.05;;;91.68;;
57057;SDS011;55017;52.848;6.748;2022-08-19T02:35:42;92.30;;;88.88;;
57057;SDS011;55017;52.848;6.748;2022-08-19T02:38:09;90.55;;;87.35;;
57057;SDS011;55017;52.848;6.748;2022-08-19T02:40:57;90.68;;;87.38;;
57057;SDS011;55017;52.848;6.748;2022-08-19T02:43:25;93.68;;;90.28;;
57057;SDS011;55017;52.848;6.748;2022-08-19T02:45:52;93.85;;;90.45;;
57057;SDS011;55017;52.848;6.748;2022-08-19T02:48:19;91.60;;;88.10;;
57057;SDS011;55017;52.848;6.748;2022-08-19T02:50:46;92.53;;;89.03;;
57057;SDS011;55017;52.848;6.748;2022-08-19T02:53:17;91.38;;;88.15;;
57057;SDS011;55017;52.848;6.748;2022-08-19T02:55:44;94.97;;;91.55;;
57057;SDS011;55017;52.848;6.748;2022-08-19T02:58:11;99.53;;;95.90;;
57057;SDS011;55017;52.848;6.748;2022-08-19T03:00:40;90.45;;;87.00;;
57057;SDS011;55017;52.848;6.748;2022-08-19T03:03:15;91.95;;;88.55;;
57057;SDS011;55017;52.848;6.748;2022-08-19T03:05:41;92.07;;;88.85;;
57057;SDS011;55017;52.848;6.748;2022-08-19T03:08:08;91.63;;;88.43;;
57057;SDS011;55017;52.848;6.748;2022-08-19T03:10:44;93.80;;;90.35;;
57057;SDS011;55017;52.848;6.748;2022-08-19T03:13:16;91.35;;;88.15;;
57057;SDS011;55017;52.848;6.748;2022-08-19T03:15:43;93.25;;;89.55;;
57057;SDS011;55017;52.848;6.748;2022-08-19T03:18:11;91.72;;;88.32;;
57057;SDS011;55017;52.848;6.748;2022-08-19T03:20:41;92.93;;;89.43;;
57057;SDS011;55017;52.848;6.748;2022-08-19T03:23:08;93.90;;;90.38;;
57057;SDS011;55017;52.848;6.748;2022-08-19T03:25:38;97.45;;;93.85;;
57057;SDS011;55017;52.848;6.748;2022-08-19T03:28:08;93.20;;;89.68;;
57057;SDS011;55017;52.848;6.748;2022-08-19T03:30:34;89.97;;;86.55;;
57057;SDS011;55017;52.848;6.748;2022-08-19T03:33:00;94.28;;;90.95;;
57057;SDS011;55017;52.848;6.748;2022-08-19T03:35:26;93.45;;;89.93;;
57057;SDS011;55017;52.848;6.748;2022-08-19T03:37:52;92.28;;;88.60;;
57057;SDS011;55017;52.848;6.748;2022-08-19T03:40:18;92.20;;;88.45;;
57057;SDS011;55017;52.848;6.748;2022-08-19T03:42:44;93.22;;;89.82;;
57057;SDS011;55017;52.848;6.748;2022-08-19T03:45:11;92.63;;;89.10;;
57057;SDS011;55017;52.848;6.748;2022-08-19T03:47:37;90.43;;;87.07;;
57057;SDS011;55017;52.848;6.748;2022-08-19T03:50:04;93.80;;;90.15;;
57057;SDS011;55017;52.848;6.748;2022-08-19T03:52:33;92.40;;;88.80;;
57057;SDS011;55017;52.848;6.748;2022-08-19T03:57:24;94.25;;;90.60;;
57057;SDS011;55017;52.848;6.748;2022-08-19T03:59:50;95.97;;;92.07;;
57057;SDS011;55017;52.848;6.748;2022-08-19T04:02:15;97.72;;;93.82;;
57057;SDS011;55017;52.848;6.748;2022-08-19T04:04:42;93.63;;;90.13;;
57057;SDS011;55017;52.848;6.748;2022-08-19T04:07:09;97.18;;;93.43;;
57057;SDS011;55017;52.848;6.748;2022-08-19T04:09:35;98.57;;;94.88;;
57057;SDS011;55017;52.848;6.748;2022-08-19T04:12:02;96.82;;;93.13;;
57057;SDS011;55017;52.848;6.748;2022-08-19T04:14:30;94.13;;;90.53;;
57057;SDS011;55017;52.848;6.748;2022-08-19T04:16:57;95.88;;;92.43;;
57057;SDS011;55017;52.848;6.748;2022-08-19T04:19:23;93.80;;;90.32;;
57057;SDS011;55017;52.848;6.748;2022-08-19T04:21:51;95.75;;;92.22;;
57057;SDS011;55017;52.848;6.748;2022-08-19T04:24:18;99.38;;;95.68;;
57057;SDS011;55017;52.848;6.748;2022-08-19T04:26:45;98.25;;;94.45;;
57057;SDS011;55017;52.848;6.748;2022-08-19T04:29:17;97.45;;;93.75;;
57057;SDS011;55017;52.848;6.748;2022-08-19T04:31:47;97.03;;;93.45;;
57057;SDS011;55017;52.848;6.748;2022-08-19T04:34:13;95.97;;;92.38;;
57057;SDS011;55017;52.848;6.748;2022-08-19T04:36:41;98.22;;;94.35;;
57057;SDS011;55017;52.848;6.748;2022-08-19T04:39:14;95.88;;;92.18;;
57057;SDS011;55017;52.848;6.748;2022-08-19T04:41:41;96.65;;;92.70;;
57057;SDS011;55017;52.848;6.748;2022-08-19T04:44:26;95.57;;;91.90;;
57057;SDS011;55017;52.848;6.748;2022-08-19T04:46:55;100.05;;;96.22;;
57057;SDS011;55017;52.848;6.748;2022-08-19T04:49:21;96.80;;;93.28;;
57057;SDS011;55017;52.848;6.748;2022-08-19T04:51:48;97.38;;;93.75;;
57057;SDS011;55017;52.848;6.748;2022-08-19T04:54:16;98.85;;;94.85;;
57057;SDS011;55017;52.848;6.748;2022-08-19T04:56:45;99.20;;;95.47;;
57057;SDS011;55017;52.848;6.748;2022-08-19T04:59:10;99.40;;;95.50;;
57057;SDS011;55017;52.848;6.748;2022-08-19T05:01:36;96.68;;;92.88;;
57057;SDS011;55017;52.848;6.748;2022-08-19T05:04:03;101.05;;;96.97;;
57057;SDS011;55017;52.848;6.748;2022-08-19T05:06:30;98.72;;;94.63;;
57057;SDS011;55017;52.848;6.748;2022-08-19T05:08:58;97.30;;;93.50;;
57057;SDS011;55017;52.848;6.748;2022-08-19T05:11:27;99.85;;;96.10;;
57057;SDS011;55017;52.848;6.748;2022-08-19T05:13:54;98.53;;;94.78;;
57057;SDS011;55017;52.848;6.748;2022-08-19T05:16:21;97.18;;;93.47;;
57057;SDS011;55017;52.848;6.748;2022-08-19T05:18:48;98.68;;;94.97;;
57057;SDS011;55017;52.848;6.748;2022-08-19T05:21:32;98.57;;;94.78;;
57057;SDS011;55017;52.848;6.748;2022-08-19T05:24:18;100.15;;;96.30;;
57057;SDS011;55017;52.848;6.748;2022-08-19T05:26:46;99.03;;;95.38;;
57057;SDS011;55017;52.848;6.748;2022-08-19T05:29:14;97.28;;;93.65;;
57057;SDS011;55017;52.848;6.748;2022-08-19T05:31:41;98.85;;;95.15;;
57057;SDS011;55017;52.848;6.748;2022-08-19T05:34:07;97.82;;;94.13;;
57057;SDS011;55017;52.848;6.748;2022-08-19T05:36:35;100.57;;;96.78;;
57057;SDS011;55017;52.848;6.748;2022-08-19T05:39:04;96.75;;;93.15;;
57057;SDS011;55017;52.848;6.748;2022-08-19T05:41:32;97.57;;;93.78;;
57057;SDS011;55017;52.848;6.748;2022-08-19T05:43:58;100.47;;;96.68;;
57057;SDS011;55017;52.848;6.748;2022-08-19T05:46:26;96.88;;;92.93;;
57057;SDS011;55017;52.848;6.748;2022-08-19T05:48:51;100.43;;;96.45;;
57057;SDS011;55017;52.848;6.748;2022-08-19T05:51:18;99.05;;;95.18;;
57057;SDS011;55017;52.848;6.748;2022-08-19T05:53:44;97.63;;;94.03;;
57057;SDS011;55017;52.848;6.748;2022-08-19T05:56:13;97.47;;;93.60;;
57057;SDS011;55017;52.848;6.748;2022-08-19T05:58:41;98.10;;;94.40;;
57057;SDS011;55017;52.848;6.748;2022-08-19T06:01:12;97.18;;;93.47;;
57057;SDS011;55017;52.848;6.748;2022-08-19T06:03:39;98.22;;;94.43;;
57057;SDS011;55017;52.848;6.748;2022-08-19T06:06:06;97.50;;;93.70;;
57057;SDS011;55017;52.848;6.748;2022-08-19T06:08:33;99.43;;;95.33;;
57057;SDS011;55017;52.848;6.748;2022-08-19T06:11:14;103.53;;;99.22;;
57057;SDS011;55017;52.848;6.748;2022-08-19T06:13:40;105.55;;;100.95;;
57057;SDS011;55017;52.848;6.748;2022-08-19T06:16:05;103.28;;;98.60;;
57057;SDS011;55017;52.848;6.748;2022-08-19T06:18:31;104.25;;;99.65;;
57057;SDS011;55017;52.848;6.748;2022-08-19T06:20:58;101.18;;;96.78;;
57057;SDS011;55017;52.848;6.748;2022-08-19T06:23:23;103.80;;;99.07;;
57057;SDS011;55017;52.848;6.748;2022-08-19T06:25:50;102.60;;;98.15;;
57057;SDS011;55017;52.848;6.748;2022-08-19T06:28:16;100.75;;;96.22;;
57057;SDS011;55017;52.848;6.748;2022-08-19T06:30:41;102.90;;;98.13;;
57057;SDS011;55017;52.848;6.748;2022-08-19T06:33:07;103.18;;;98.57;;
57057;SDS011;55017;52.848;6.748;2022-08-19T06:35:32;102.20;;;97.57;;
57057;SDS011;55017;52.848;6.748;2022-08-19T06:38:03;101.65;;;97.05;;
57057;SDS011;55017;52.848;6.748;2022-08-19T06:40:29;101.60;;;96.93;;
57057;SDS011;55017;52.848;6.748;2022-08-19T06:42:55;102.32;;;97.63;;
57057;SDS011;55017;52.848;6.748;2022-08-19T06:45:23;103.10;;;98.63;;
57057;SDS011;55017;52.848;6.748;2022-08-19T06:47:49;99.95;;;95.55;;
57057;SDS011;55017;52.848;6.748;2022-08-19T06:50:19;99.38;;;95.07;;
57057;SDS011;55017;52.848;6.748;2022-08-19T06:52:44;99.75;;;95.18;;
57057;SDS011;55017;52.848;6.748;2022-08-19T06:55:11;102.20;;;97.90;;
57057;SDS011;55017;52.848;6.748;2022-08-19T06:57:37;100.68;;;96.50;;
57057;SDS011;55017;52.848;6.748;2022-08-19T07:00:03;99.78;;;95.40;;
57057;SDS011;55017;52.848;6.748;2022-08-19T07:02:30;99.95;;;95.50;;
57057;SDS011;55017;52.848;6.748;2022-08-19T07:04:55;97.20;;;92.90;;
57057;SDS011;55017;52.848;6.748;2022-08-19T07:07:23;96.68;;;92.57;;
57057;SDS011;55017;52.848;6.748;2022-08-19T07:09:49;95.80;;;91.47;;
57057;SDS011;55017;52.848;6.748;2022-08-19T07:12:15;98.57;;;94.28;;
57057;SDS011;55017;52.848;6.748;2022-08-19T07:14:41;97.03;;;92.57;;
57057;SDS011;55017;52.848;6.748;2022-08-19T07:17:08;96.65;;;92.75;;
57057;SDS011;55017;52.848;6.748;2022-08-19T07:19:37;98.50;;;94.15;;
57057;SDS011;55017;52.848;6.748;2022-08-19T07:22:05;96.23;;;92.10;;
57057;SDS011;55017;52.848;6.748;2022-08-19T07:24:32;96.28;;;92.38;;
57057;SDS011;55017;52.848;6.748;2022-08-19T07:26:59;96.72;;;92.50;;
57057;SDS011;55017;52.848;6.748;2022-08-19T07:29:27;98.32;;;93.93;;
57057;SDS011;55017;52.848;6.748;2022-08-19T07:31:56;98.55;;;94.00;;
57057;SDS011;55017;52.848;6.748;2022-08-19T07:34:23;95.80;;;91.93;;
57057;SDS011;55017;52.848;6.748;2022-08-19T07:36:50;98.95;;;94.35;;
57057;SDS011;55017;52.848;6.748;2022-08-19T07:39:18;96.97;;;93.00;;
57057;SDS011;55017;52.848;6.748;2022-08-19T07:41:47;94.65;;;90.45;;
57057;SDS011;55017;52.848;6.748;2022-08-19T07:44:13;96.15;;;92.18;;
57057;SDS011;55017;52.848;6.748;2022-08-19T07:46:42;96.13;;;92.13;;
57057;SDS011;55017;52.848;6.748;2022-08-19T07:49:09;95.28;;;91.18;;
57057;SDS011;55017;52.848;6.748;2022-08-19T07:51:41;96.07;;;92.10;;
57057;SDS011;55017;52.848;6.748;2022-08-19T07:54:07;93.07;;;88.97;;
57057;SDS011;55017;52.848;6.748;2022-08-19T07:56:32;91.55;;;87.70;;
57057;SDS011;55017;52.848;6.748;2022-08-19T07:58:58;93.57;;;89.57;;
57057;SDS011;55017;52.848;6.748;2022-08-19T08:01:25;93.85;;;89.78;;
57057;SDS011;55017;52.848;6.748;2022-08-19T08:06:37;94.50;;;90.70;;
57057;SDS011;55017;52.848;6.748;2022-08-19T08:09:23;94.18;;;90.10;;
57057;SDS011;55017;52.848;6.748;2022-08-19T08:11:57;93.38;;;89.45;;
57057;SDS011;55017;52.848;6.748;2022-08-19T08:14:29;93.13;;;89.22;;
57057;SDS011;55017;52.848;6.748;2022-08-19T08:16:58;94.05;;;89.90;;
57057;SDS011;55017;52.848;6.748;2022-08-19T08:19:24;92.75;;;88.70;;
57057;SDS011;55017;52.848;6.748;2022-08-19T08:21:51;92.38;;;88.63;;
57057;SDS011;55017;52.848;6.748;2022-08-19T08:24:18;90.35;;;86.75;;
57057;SDS011;55017;52.848;6.748;2022-08-19T08:26:45;91.97;;;88.07;;
57057;SDS011;55017;52.848;6.748;2022-08-19T08:29:11;88.00;;;84.45;;
57057;SDS011;55017;52.848;6.748;2022-08-19T08:31:38;89.05;;;85.45;;
57057;SDS011;55017;52.848;6.748;2022-08-19T08:34:04;89.97;;;86.20;;
57057;SDS011;55017;52.848;6.748;2022-08-19T08:36:30;92.10;;;88.20;;
57057;SDS011;55017;52.848;6.748;2022-08-19T08:38:58;93.32;;;89.45;;
57057;SDS011;55017;52.848;6.748;2022-08-19T08:44:02;89.88;;;86.20;;
57057;SDS011;55017;52.848;6.748;2022-08-19T08:49:20;89.20;;;85.40;;
57057;SDS011;55017;52.848;6.748;2022-08-19T08:52:06;92.53;;;88.53;;
57057;SDS011;55017;52.848;6.748;2022-08-19T08:54:53;90.80;;;86.93;;
57057;SDS011;55017;52.848;6.748;2022-08-19T09:00:07;89.45;;;85.75;;
57057;SDS011;55017;52.848;6.748;2022-08-19T09:02:39;87.38;;;83.88;;
57057;SDS011;55017;52.848;6.748;2022-08-19T09:05:05;88.90;;;84.80;;
57057;SDS011;55017;52.848;6.748;2022-08-19T09:15:46;86.72;;;83.43;;
57057;SDS011;55017;52.848;6.748;2022-08-19T09:18:17;84.63;;;81.38;;
57057;SDS011;55017;52.848;6.748;2022-08-19T09:20:43;85.80;;;82.35;;
57057;SDS011;55017;52.848;6.748;2022-08-19T09:23:09;83.88;;;80.78;;
57057;SDS011;55017;52.848;6.748;2022-08-19T09:25:36;81.90;;;78.90;;
57057;SDS011;55017;52.848;6.748;2022-08-19T09:28:01;83.93;;;80.55;;
57057;SDS011;55017;52.848;6.748;2022-08-19T09:30:28;83.47;;;80.18;;
57057;SDS011;55017;52.848;6.748;2022-08-19T09:32:59;81.40;;;78.30;;
57057;SDS011;55017;52.848;6.748;2022-08-19T09:35:26;85.05;;;81.55;;
57057;SDS011;55017;52.848;6.748;2022-08-19T09:37:53;87.45;;;84.00;;
57057;SDS011;55017;52.848;6.748;2022-08-19T09:40:20;85.72;;;82.47;;
57057;SDS011;55017;52.848;6.748;2022-08-19T09:42:46;83.72;;;80.53;;
57057;SDS011;55017;52.848;6.748;2022-08-19T09:45:16;82.50;;;79.47;;
57057;SDS011;55017;52.848;6.748;2022-08-19T09:47:45;86.30;;;82.88;;
57057;SDS011;55017;52.848;6.748;2022-08-19T09:50:11;83.85;;;80.40;;
57057;SDS011;55017;52.848;6.748;2022-08-19T09:52:37;87.07;;;83.57;;
57057;SDS011;55017;52.848;6.748;2022-08-19T09:55:04;88.30;;;84.60;;
57057;SDS011;55017;52.848;6.748;2022-08-19T09:57:34;90.18;;;86.47;;
57057;SDS011;55017;52.848;6.748;2022-08-19T10:00:00;87.20;;;83.72;;
57057;SDS011;55017;52.848;6.748;2022-08-19T10:02:26;89.57;;;85.97;;
57057;SDS011;55017;52.848;6.748;2022-08-19T10:04:52;85.63;;;82.07;;
57057;SDS011;55017;52.848;6.748;2022-08-19T10:07:37;83.88;;;80.63;;
57057;SDS011;55017;52.848;6.748;2022-08-19T10:10:03;85.80;;;82.28;;
57057;SDS011;55017;52.848;6.748;2022-08-19T10:12:31;90.75;;;87.03;;
57057;SDS011;55017;52.848;6.748;2022-08-19T10:14:58;86.82;;;83.32;;
57057;SDS011;55017;52.848;6.748;2022-08-19T10:17:24;88.75;;;85.03;;
57057;SDS011;55017;52.848;6.748;2022-08-19T10:19:50;87.57;;;84.07;;
57057;SDS011;55017;52.848;6.748;2022-08-19T10:22:17;85.00;;;81.60;;
57057;SDS011;55017;52.848;6.748;2022-08-19T10:24:43;87.70;;;84.18;;
57057;SDS011;55017;52.848;6.748;2022-08-19T10:27:10;87.88;;;84.47;;
57057;SDS011;55017;52.848;6.748;2022-08-19T10:29:37;86.20;;;82.68;;
57057;SDS011;55017;52.848;6.748;2022-08-19T10:32:04;84.63;;;81.15;;
57057;SDS011;55017;52.848;6.748;2022-08-19T10:34:33;83.28;;;80.07;;
57057;SDS011;55017;52.848;6.748;2022-08-19T10:37:00;82.72;;;79.32;;
57057;SDS011;55017;52.848;6.748;2022-08-19T10:39:26;88.47;;;85.07;;
57057;SDS011;55017;52.848;6.748;2022-08-19T10:41:54;84.07;;;80.78;;
57057;SDS011;55017;52.848;6.748;2022-08-19T10:44:21;82.95;;;79.65;;
57057;SDS011;55017;52.848;6.748;2022-08-19T10:46:48;84.28;;;81.00;;
57057;SDS011;55017;52.848;6.748;2022-08-19T10:49:14;83.57;;;80.38;;
57057;SDS011;55017;52.848;6.748;2022-08-19T10:51:40;85.53;;;82.13;;
57057;SDS011;55017;52.848;6.748;2022-08-19T10:54:24;81.78;;;78.78;;
57057;SDS011;55017;52.848;6.748;2022-08-19T10:57:10;82.07;;;78.97;;
57057;SDS011;55017;52.848;6.748;2022-08-19T10:59:36;84.85;;;81.55;;
57057;SDS011;55017;52.848;6.748;2022-08-19T11:02:03;82.10;;;79.00;;
57057;SDS011;55017;52.848;6.748;2022-08-19T11:06:57;83.78;;;80.57;;
57057;SDS011;55017;52.848;6.748;2022-08-19T11:09:23;82.25;;;79.25;;
57057;SDS011;55017;52.848;6.748;2022-08-19T11:11:52;83.47;;;80.30;;
57057;SDS011;55017;52.848;6.748;2022-08-19T11:14:19;81.97;;;78.78;;
57057;SDS011;55017;52.848;6.748;2022-08-19T11:16:46;83.40;;;80.20;;
57057;SDS011;55017;52.848;6.748;2022-08-19T11:19:13;84.18;;;81.18;;
57057;SDS011;55017;52.848;6.748;2022-08-19T11:21:42;81.70;;;78.78;;
57057;SDS011;55017;52.848;6.748;2022-08-19T11:24:11;81.82;;;78.82;;
57057;SDS011;55017;52.848;6.748;2022-08-19T11:26:38;83.43;;;80.32;;
57057;SDS011;55017;52.848;6.748;2022-08-19T11:29:06;79.65;;;76.85;;
57057;SDS011;55017;52.848;6.748;2022-08-19T11:31:36;81.18;;;78.18;;
57057;SDS011;55017;52.848;6.748;2022-08-19T11:34:05;80.07;;;77.18;;
57057;SDS011;55017;52.848;6.748;2022-08-19T11:36:32;78.55;;;75.63;;
57057;SDS011;55017;52.848;6.748;2022-08-19T11:38:59;77.85;;;74.97;;
57057;SDS011;55017;52.848;6.748;2022-08-19T11:41:26;81.43;;;78.32;;
57057;SDS011;55017;52.848;6.748;2022-08-19T11:43:52;80.40;;;77.28;;
57057;SDS011;55017;52.848;6.748;2022-08-19T11:46:20;83.78;;;80.55;;
57057;SDS011;55017;52.848;6.748;2022-08-19T11:51:16;80.97;;;77.97;;
57057;SDS011;55017;52.848;6.748;2022-08-19T11:53:44;80.75;;;77.75;;
57057;SDS011;55017;52.848;6.748;2022-08-19T11:56:10;80.03;;;77.05;;
57057;SDS011;55017;52.848;6.748;2022-08-19T11:58:36;78.82;;;75.82;;
57057;SDS011;55017;52.848;6.748;2022-08-19T12:01:09;78.25;;;75.25;;
57057;SDS011;55017;52.848;6.748;2022-08-19T12:03:36;82.57;;;79.43;;
57057;SDS011;55017;52.848;6.748;2022-08-19T12:06:04;79.43;;;76.35;;
57057;SDS011;55017;52.848;6.748;2022-08-19T12:08:34;79.50;;;76.30;;
57057;SDS011;55017;52.848;6.748;2022-08-19T12:11:00;75.78;;;72.97;;
57057;SDS011;55017;52.848;6.748;2022-08-19T12:13:29;80.32;;;77.30;;
57057;SDS011;55017;52.848;6.748;2022-08-19T12:15:56;79.55;;;76.53;;
57057;SDS011;55017;52.848;6.748;2022-08-19T12:18:22;78.65;;;75.57;;
57057;SDS011;55017;52.848;6.748;2022-08-19T12:20:50;80.35;;;77.25;;
57057;SDS011;55017;52.848;6.748;2022-08-19T12:23:16;79.68;;;76.78;;
57057;SDS011;55017;52.848;6.748;2022-08-19T12:25:43;79.05;;;76.15;;
57057;SDS011;55017;52.848;6.748;2022-08-19T12:28:18;76.90;;;74.15;;
57057;SDS011;55017;52.848;6.748;2022-08-19T12:33:10;81.75;;;78.80;;
57057;SDS011;55017;52.848;6.748;2022-08-19T12:35:42;76.85;;;73.95;;
57057;SDS011;55017;52.848;6.748;2022-08-19T12:38:09;78.47;;;75.38;;
57057;SDS011;55017;52.848;6.748;2022-08-19T12:40:35;81.80;;;78.47;;
57057;SDS011;55017;52.848;6.748;2022-08-19T12:43:01;80.30;;;77.30;;
57057;SDS011;55017;52.848;6.748;2022-08-19T12:45:27;78.60;;;75.70;;
57057;SDS011;55017;52.848;6.748;2022-08-19T12:47:53;79.45;;;76.65;;
57057;SDS011;55017;52.848;6.748;2022-08-19T12:50:19;79.78;;;76.97;;
57057;SDS011;55017;52.848;6.748;2022-08-19T12:52:46;78.87;;;76.07;;
57057;SDS011;55017;52.848;6.748;2022-08-19T12:55:13;78.00;;;75.20;;
57057;SDS011;55017;52.848;6.748;2022-08-19T12:57:39;77.88;;;75.07;;
57057;SDS011;55017;52.848;6.748;2022-08-19T13:00:09;78.55;;;75.72;;
57057;SDS011;55017;52.848;6.748;2022-08-19T13:02:42;77.93;;;75.00;;
57057;SDS011;55017;52.848;6.748;2022-08-19T13:05:10;77.88;;;74.88;;
57057;SDS011;55017;52.848;6.748;2022-08-19T13:07:38;76.80;;;74.00;;
57057;SDS011;55017;52.848;6.748;2022-08-19T13:10:06;78.22;;;75.43;;
57057;SDS011;55017;52.848;6.748;2022-08-19T13:12:34;76.03;;;73.22;;
57057;SDS011;55017;52.848;6.748;2022-08-19T13:14:59;78.10;;;75.30;;
57057;SDS011;55017;52.848;6.748;2022-08-19T13:17:25;77.20;;;74.50;;
57057;SDS011;55017;52.848;6.748;2022-08-19T13:19:51;78.25;;;75.45;;
57057;SDS011;55017;52.848;6.748;2022-08-19T13:22:17;78.15;;;75.40;;
57057;SDS011;55017;52.848;6.748;2022-08-19T13:24:43;76.47;;;73.85;;
57057;SDS011;55017;52.848;6.748;2022-08-19T13:27:09;76.40;;;73.70;;
57057;SDS011;55017;52.848;6.748;2022-08-19T13:29:34;76.85;;;74.15;;
57057;SDS011;55017;52.848;6.748;2022-08-19T13:32:18;76.50;;;73.80;;
57057;SDS011;55017;52.848;6.748;2022-08-19T13:35:03;76.90;;;74.10;;
57057;SDS011;55017;52.848;6.748;2022-08-19T13:37:29;78.43;;;75.63;;
57057;SDS011;55017;52.848;6.748;2022-08-19T13:40:15;75.53;;;72.78;;
57057;SDS011;55017;52.848;6.748;2022-08-19T13:42:49;76.78;;;74.07;;
57057;SDS011;55017;52.848;6.748;2022-08-19T13:45:17;78.15;;;75.45;;
57057;SDS011;55017;52.848;6.748;2022-08-19T13:47:47;77.38;;;74.68;;
57057;SDS011;55017;52.848;6.748;2022-08-19T13:50:14;78.70;;;75.80;;
57057;SDS011;55017;52.848;6.748;2022-08-19T13:52:42;75.88;;;73.20;;
57057;SDS011;55017;52.848;6.748;2022-08-19T13:55:08;80.00;;;77.28;;
57057;SDS011;55017;52.848;6.748;2022-08-19T13:57:36;78.10;;;75.40;;
57057;SDS011;55017;52.848;6.748;2022-08-19T14:00:06;79.82;;;76.95;;
57057;SDS011;55017;52.848;6.748;2022-08-19T14:02:35;78.22;;;75.35;;
57057;SDS011;55017;52.848;6.748;2022-08-19T14:05:02;76.65;;;74.05;;
57057;SDS011;55017;52.848;6.748;2022-08-19T14:07:29;77.90;;;75.10;;
57057;SDS011;55017;52.848;6.748;2022-08-19T14:09:54;77.30;;;74.70;;
57057;SDS011;55017;52.848;6.748;2022-08-19T14:12:20;77.70;;;75.00;;
57057;SDS011;55017;52.848;6.748;2022-08-19T14:14:47;78.20;;;75.40;;
57057;SDS011;55017;52.848;6.748;2022-08-19T14:17:12;78.10;;;75.35;;
57057;SDS011;55017;52.848;6.748;2022-08-19T14:19:38;78.40;;;75.60;;
57057;SDS011;55017;52.848;6.748;2022-08-19T14:22:03;76.88;;;74.18;;
57057;SDS011;55017;52.848;6.748;2022-08-19T14:24:30;77.13;;;74.22;;
57057;SDS011;55017;52.848;6.748;2022-08-19T14:26:57;76.68;;;73.90;;
57057;SDS011;55017;52.848;6.748;2022-08-19T14:29:23;76.55;;;73.85;;
57057;SDS011;55017;52.848;6.748;2022-08-19T14:31:49;77.72;;;74.63;;
57057;SDS011;55017;52.848;6.748;2022-08-19T14:34:15;78.72;;;75.72;;
57057;SDS011;55017;52.848;6.748;2022-08-19T14:36:40;82.47;;;79.47;;
57057;SDS011;55017;52.848;6.748;2022-08-19T14:39:06;80.40;;;77.30;;
57057;SDS011;55017;52.848;6.748;2022-08-19T14:41:33;85.03;;;81.63;;
57057;SDS011;55017;52.848;6.748;2022-08-19T14:43:59;82.35;;;79.20;;
57057;SDS011;55017;52.848;6.748;2022-08-19T14:46:26;87.25;;;83.65;;
57057;SDS011;55017;52.848;6.748;2022-08-19T14:51:20;86.97;;;83.53;;
57057;SDS011;55017;52.848;6.748;2022-08-19T14:53:47;88.97;;;85.57;;
57057;SDS011;55017;52.848;6.748;2022-08-19T14:56:17;87.95;;;84.25;;
57057;SDS011;55017;52.848;6.748;2022-08-19T14:58:45;88.43;;;84.82;;
57057;SDS011;55017;52.848;6.748;2022-08-19T15:01:12;88.53;;;84.80;;
57057;SDS011;55017;52.848;6.748;2022-08-19T15:03:38;86.80;;;83.10;;
57057;SDS011;55017;52.848;6.748;2022-08-19T15:06:06;87.53;;;83.97;;
57057;SDS011;55017;52.848;6.748;2022-08-19T15:08:34;92.10;;;88.15;;
57057;SDS011;55017;52.848;6.748;2022-08-19T15:11:01;88.38;;;84.78;;
57057;SDS011;55017;52.848;6.748;2022-08-19T15:13:28;90.47;;;86.32;;
57057;SDS011;55017;52.848;6.748;2022-08-19T15:15:55;89.18;;;85.13;;
57057;SDS011;55017;52.848;6.748;2022-08-19T15:18:21;88.95;;;85.10;;
57057;SDS011;55017;52.848;6.748;2022-08-19T15:20:48;88.38;;;84.40;;
57057;SDS011;55017;52.848;6.748;2022-08-19T15:23:15;88.50;;;84.85;;
57057;SDS011;55017;52.848;6.748;2022-08-19T15:25:42;86.88;;;83.10;;
57057;SDS011;55017;52.848;6.748;2022-08-19T15:28:08;85.63;;;81.93;;
57057;SDS011;55017;52.848;6.748;2022-08-19T15:30:36;86.20;;;82.70;;
57057;SDS011;55017;52.848;6.748;2022-08-19T15:33:03;86.50;;;83.00;;
57057;SDS011;55017;52.848;6.748;2022-08-19T15:35:29;85.38;;;81.68;;
57057;SDS011;55017;52.848;6.748;2022-08-19T15:37:56;89.57;;;85.78;;
57057;SDS011;55017;52.848;6.748;2022-08-19T15:40:22;89.75;;;85.95;;
57057;SDS011;55017;52.848;6.748;2022-08-19T15:42:50;88.18;;;84.47;;
57057;SDS011;55017;52.848;6.748;2022-08-19T15:45:16;86.05;;;82.45;;
57057;SDS011;55017;52.848;6.748;2022-08-19T15:47:43;88.07;;;84.47;;
57057;SDS011;55017;52.848;6.748;2022-08-19T15:50:10;87.68;;;84.00;;
57057;SDS011;55017;52.848;6.748;2022-08-19T15:52:52;88.78;;;84.88;;